sensor_id;sensor_type;location;lat;lon;timestamp;temperature;humidity
56234;DHT22;42141;53.240;6.580;2022-08-16T00:00:27;21.60;99.90
56234;DHT22;42141;53.240;6.580;2022-08-16T00:02:54;21.60;99.90
56234;DHT22;42141;53.240;6.580;2022-08-16T00:05:22;21.60;99.90
56234;DHT22;42141;53.240;6.580;2022-08-16T00:07:49;21.60;99.90
56234;DHT22;42141;53.240;6.580;2022-08-16T00:10:16;21.50;99.90
56234;DHT22;42141;53.240;6.580;2022-08-16T00:12:42;21.50;99.90
56234;DHT22;42141;53.240;6.580;2022-08-16T00:15:15;21.50;99.90
56234;DHT22;42141;53.240;6.580;2022-08-16T00:17:41;21.50;99.90
56234;DHT22;42141;53.240;6.580;2022-08-16T00:20:12;21.60;99.90
56234;DHT22;42141;53.240;6.580;2022-08-16T00:22:41;21.50;99.90
56234;DHT22;42141;53.240;6.580;2022-08-16T00:25:12;21.50;99.90
56234;DHT22;42141;53.240;6.580;2022-08-16T00:27:38;21.50;99.90
56234;DHT22;42141;53.240;6.580;2022-08-16T00:30:06;21.50;99.90
56234;DHT22;42141;53.240;6.580;2022-08-16T00:32:33;21.40;99.90
56234;DHT22;42141;53.240;6.580;2022-08-16T00:34:58;21.30;99.90
56234;DHT22;42141;53.240;6.580;2022-08-16T00:37:25;21.20;99.90
56234;DHT22;42141;53.240;6.580;2022-08-16T00:39:52;21.20;99.90
56234;DHT22;42141;53.240;6.580;2022-08-16T00:42:19;21.20;99.90
56234;DHT22;42141;53.240;6.580;2022-08-16T00:44:49;21.10;99.90
56234;DHT22;42141;53.240;6.580;2022-08-16T00:47:17;21.10;99.90
56234;DHT22;42141;53.240;6.580;2022-08-16T00:49:44;21.10;99.90
56234;DHT22;42141;53.240;6.580;2022-08-16T00:52:10;21.10;99.90
56234;DHT22;42141;53.240;6.580;2022-08-16T00:54:36;21.10;99.90
56234;DHT22;42141;53.240;6.580;2022-08-16T00:57:02;21.10;99.90
56234;DHT22;42141;53.240;6.580;2022-08-16T00:59:31;21.10;99.90
56234;DHT22;42141;53.240;6.580;2022-08-16T01:01:58;21.10;99.90
56234;DHT22;42141;53.240;6.580;2022-08-16T01:04:26;21.10;99.90
56234;DHT22;42141;53.240;6.580;2022-08-16T01:06:52;21.10;99.90
56234;DHT22;42141;53.240;6.580;2022-08-16T01:09:18;21.00;99.90
56234;DHT22;42141;53.240;6.580;2022-08-16T01:11:45;21.00;99.90
56234;DHT22;42141;53.240;6.580;2022-08-16T01:14:19;21.00;99.90
56234;DHT22;42141;53.240;6.580;2022-08-16T01:16:46;21.10;99.90
56234;DHT22;42141;53.240;6.580;2022-08-16T01:19:32;21.00;99.90
56234;DHT22;42141;53.240;6.580;2022-08-16T01:22:18;21.00;99.90
56234;DHT22;42141;53.240;6.580;2022-08-16T01:24:52;21.00;99.90
56234;DHT22;42141;53.240;6.580;2022-08-16T01:27:29;21.00;99.90
56234;DHT22;42141;53.240;6.580;2022-08-16T01:29:59;21.00;99.90
56234;DHT22;42141;53.240;6.580;2022-08-16T01:32:29;21.00;99.90
56234;DHT22;42141;53.240;6.580;2022-08-16T01:34:56;21.00;99.90
56234;DHT22;42141;53.240;6.580;2022-08-16T01:37:22;21.00;99.90
56234;DHT22;42141;53.240;6.580;2022-08-16T01:39:48;21.00;99.90
56234;DHT22;42141;53.240;6.580;2022-08-16T01:42:14;21.00;99.90
56234;DHT22;42141;53.240;6.580;2022-08-16T01:44:40;21.00;99.90
56234;DHT22;42141;53.240;6.580;2022-08-16T01:47:07;20.90;99.90
56234;DHT22;42141;53.240;6.580;2022-08-16T01:49:37;20.90;99.90
56234;DHT22;42141;53.240;6.580;2022-08-16T01:52:06;20.90;99.90
56234;DHT22;42141;53.240;6.580;2022-08-16T01:54:32;20.90;99.90
56234;DHT22;42141;53.240;6.580;2022-08-16T01:56:59;20.90;99.90
56234;DHT22;42141;53.240;6.580;2022-08-16T01:59:25;21.00;99.90
56234;DHT22;42141;53.240;6.580;2022-08-16T02:01:52;20.80;99.90
56234;DHT22;42141;53.240;6.580;2022-08-16T02:04:20;20.30;99.90
56234;DHT22;42141;53.240;6.580;2022-08-16T02:06:45;20.80;99.90
56234;DHT22;42141;53.240;6.580;2022-08-16T02:09:12;20.70;99.90
56234;DHT22;42141;53.240;6.580;2022-08-16T02:11:43;20.70;99.90
56234;DHT22;42141;53.240;6.580;2022-08-16T02:14:09;20.70;99.90
56234;DHT22;42141;53.240;6.580;2022-08-16T02:16:35;20.60;99.90
56234;DHT22;42141;53.240;6.580;2022-08-16T02:19:02;20.60;99.90
56234;DHT22;42141;53.240;6.580;2022-08-16T02:21:28;20.50;99.90
56234;DHT22;42141;53.240;6.580;2022-08-16T02:23:55;20.50;99.90
56234;DHT22;42141;53.240;6.580;2022-08-16T02:26:20;20.50;99.90
56234;DHT22;42141;53.240;6.580;2022-08-16T02:28:46;20.50;99.90
56234;DHT22;42141;53.240;6.580;2022-08-16T02:31:13;20.60;99.90
56234;DHT22;42141;53.240;6.580;2022-08-16T02:33:41;20.40;99.90
56234;DHT22;42141;53.240;6.580;2022-08-16T02:36:08;20.40;99.90
56234;DHT22;42141;53.240;6.580;2022-08-16T02:38:34;20.50;99.90
56234;DHT22;42141;53.240;6.580;2022-08-16T02:41:05;20.50;99.90
56234;DHT22;42141;53.240;6.580;2022-08-16T02:43:32;20.50;99.90
56234;DHT22;42141;53.240;6.580;2022-08-16T02:45:59;20.50;99.90
56234;DHT22;42141;53.240;6.580;2022-08-16T02:48:25;20.50;99.90
56234;DHT22;42141;53.240;6.580;2022-08-16T02:50:52;20.50;99.90
56234;DHT22;42141;53.240;6.580;2022-08-16T02:53:18;20.50;99.90
56234;DHT22;42141;53.240;6.580;2022-08-16T02:55:45;20.50;99.90
56234;DHT22;42141;53.240;6.580;2022-08-16T02:58:10;20.50;99.90
56234;DHT22;42141;53.240;6.580;2022-08-16T03:00:37;20.50;99.90
56234;DHT22;42141;53.240;6.580;2022-08-16T03:03:03;20.50;99.90
56234;DHT22;42141;53.240;6.580;2022-08-16T03:05:30;20.50;99.90
56234;DHT22;42141;53.240;6.580;2022-08-16T03:07:55;20.50;99.90
56234;DHT22;42141;53.240;6.580;2022-08-16T03:10:21;20.50;99.90
56234;DHT22;42141;53.240;6.580;2022-08-16T03:12:47;20.50;99.90
56234;DHT22;42141;53.240;6.580;2022-08-16T03:15:15;20.50;99.90
56234;DHT22;42141;53.240;6.580;2022-08-16T03:17:42;20.60;99.90
56234;DHT22;42141;53.240;6.580;2022-08-16T03:20:11;20.50;99.90
56234;DHT22;42141;53.240;6.580;2022-08-16T03:22:37;20.60;99.90
56234;DHT22;42141;53.240;6.580;2022-08-16T03:25:06;20.60;99.90
56234;DHT22;42141;53.240;6.580;2022-08-16T03:27:33;20.60;99.90
56234;DHT22;42141;53.240;6.580;2022-08-16T03:30:09;20.50;99.90
56234;DHT22;42141;53.240;6.580;2022-08-16T03:32:35;20.60;99.90
56234;DHT22;42141;53.240;6.580;2022-08-16T03:35:01;20.60;99.90
56234;DHT22;42141;53.240;6.580;2022-08-16T03:37:26;20.60;99.90
56234;DHT22;42141;53.240;6.580;2022-08-16T03:39:52;20.50;99.90
56234;DHT22;42141;53.240;6.580;2022-08-16T03:42:18;20.50;99.90
56234;DHT22;42141;53.240;6.580;2022-08-16T03:44:43;20.50;99.90
56234;DHT22;42141;53.240;6.580;2022-08-16T03:47:09;20.50;99.90
56234;DHT22;42141;53.240;6.580;2022-08-16T03:49:35;20.40;99.90
56234;DHT22;42141;53.240;6.580;2022-08-16T03:52:01;20.30;99.90
56234;DHT22;42141;53.240;6.580;2022-08-16T03:54:27;20.30;99.90
56234;DHT22;42141;53.240;6.580;2022-08-16T03:56:53;20.30;99.90
56234;DHT22;42141;53.240;6.580;2022-08-16T03:59:18;20.20;99.90
56234;DHT22;42141;53.240;6.580;2022-08-16T04:01:44;20.20;99.90
56234;DHT22;42141;53.240;6.580;2022-08-16T04:04:10;20.10;99.90
56234;DHT22;42141;53.240;6.580;2022-08-16T04:06:36;20.10;99.90
56234;DHT22;42141;53.240;6.580;2022-08-16T04:09:02;20.00;99.90
56234;DHT22;42141;53.240;6.580;2022-08-16T04:11:27;20.00;99.90
56234;DHT22;42141;53.240;6.580;2022-08-16T04:13:53;19.90;99.90
56234;DHT22;42141;53.240;6.580;2022-08-16T04:16:19;19.80;99.90
56234;DHT22;42141;53.240;6.580;2022-08-16T04:18:44;19.80;99.90
56234;DHT22;42141;53.240;6.580;2022-08-16T04:21:10;19.80;99.90
56234;DHT22;42141;53.240;6.580;2022-08-16T04:23:36;19.80;99.90
56234;DHT22;42141;53.240;6.580;2022-08-16T04:26:05;19.70;99.90
56234;DHT22;42141;53.240;6.580;2022-08-16T04:28:31;19.70;99.90
56234;DHT22;42141;53.240;6.580;2022-08-16T04:30:57;19.60;99.90
56234;DHT22;42141;53.240;6.580;2022-08-16T04:33:23;19.60;99.90
56234;DHT22;42141;53.240;6.580;2022-08-16T04:35:50;19.60;99.90
56234;DHT22;42141;53.240;6.580;2022-08-16T04:38:16;19.60;99.90
56234;DHT22;42141;53.240;6.580;2022-08-16T04:40:44;19.60;99.90
56234;DHT22;42141;53.240;6.580;2022-08-16T04:43:12;19.50;99.90
56234;DHT22;42141;53.240;6.580;2022-08-16T04:45:40;19.50;99.90
56234;DHT22;42141;53.240;6.580;2022-08-16T04:48:07;19.50;99.90
56234;DHT22;42141;53.240;6.580;2022-08-16T04:50:33;19.50;99.90
56234;DHT22;42141;53.240;6.580;2022-08-16T04:52:59;19.50;99.90
56234;DHT22;42141;53.240;6.580;2022-08-16T04:55:27;19.50;99.90
56234;DHT22;42141;53.240;6.580;2022-08-16T04:57:54;19.50;99.90
56234;DHT22;42141;53.240;6.580;2022-08-16T05:00:26;19.50;99.90
56234;DHT22;42141;53.240;6.580;2022-08-16T05:03:03;19.50;99.90
56234;DHT22;42141;53.240;6.580;2022-08-16T05:05:30;19.50;99.90
56234;DHT22;42141;53.240;6.580;2022-08-16T05:07:56;19.50;99.90
56234;DHT22;42141;53.240;6.580;2022-08-16T05:10:22;19.50;99.90
56234;DHT22;42141;53.240;6.580;2022-08-16T05:12:48;19.60;99.90
56234;DHT22;42141;53.240;6.580;2022-08-16T05:15:14;19.60;99.90
56234;DHT22;42141;53.240;6.580;2022-08-16T05:17:40;19.60;99.90
56234;DHT22;42141;53.240;6.580;2022-08-16T05:20:07;19.60;99.90
56234;DHT22;42141;53.240;6.580;2022-08-16T05:22:35;19.70;99.90
56234;DHT22;42141;53.240;6.580;2022-08-16T05:25:02;19.70;99.90
56234;DHT22;42141;53.240;6.580;2022-08-16T05:27:28;19.80;99.90
56234;DHT22;42141;53.240;6.580;2022-08-16T05:29:54;19.90;99.90
56234;DHT22;42141;53.240;6.580;2022-08-16T05:32:20;19.90;99.90
56234;DHT22;42141;53.240;6.580;2022-08-16T05:34:45;20.00;99.90
56234;DHT22;42141;53.240;6.580;2022-08-16T05:37:11;20.00;99.90
56234;DHT22;42141;53.240;6.580;2022-08-16T05:39:37;20.10;99.90
56234;DHT22;42141;53.240;6.580;2022-08-16T05:42:02;20.20;99.90
56234;DHT22;42141;53.240;6.580;2022-08-16T05:44:28;20.10;99.90
56234;DHT22;42141;53.240;6.580;2022-08-16T05:46:57;20.20;99.90
56234;DHT22;42141;53.240;6.580;2022-08-16T05:49:25;20.20;99.90
56234;DHT22;42141;53.240;6.580;2022-08-16T05:51:51;20.20;99.90
56234;DHT22;42141;53.240;6.580;2022-08-16T05:54:19;20.30;99.90
56234;DHT22;42141;53.240;6.580;2022-08-16T05:56:45;20.40;99.90
56234;DHT22;42141;53.240;6.580;2022-08-16T05:59:13;20.50;99.90
56234;DHT22;42141;53.240;6.580;2022-08-16T06:01:40;20.50;99.90
56234;DHT22;42141;53.240;6.580;2022-08-16T06:04:08;20.50;99.90
56234;DHT22;42141;53.240;6.580;2022-08-16T06:06:35;20.60;99.90
56234;DHT22;42141;53.240;6.580;2022-08-16T06:09:01;20.60;99.90
56234;DHT22;42141;53.240;6.580;2022-08-16T06:11:26;20.70;99.90
56234;DHT22;42141;53.240;6.580;2022-08-16T06:13:52;20.80;99.90
56234;DHT22;42141;53.240;6.580;2022-08-16T06:16:18;20.80;99.90
56234;DHT22;42141;53.240;6.580;2022-08-16T06:18:43;20.90;99.90
56234;DHT22;42141;53.240;6.580;2022-08-16T06:21:10;21.00;99.90
56234;DHT22;42141;53.240;6.580;2022-08-16T06:23:36;21.00;99.90
56234;DHT22;42141;53.240;6.580;2022-08-16T06:26:03;21.10;99.90
56234;DHT22;42141;53.240;6.580;2022-08-16T06:28:29;21.20;99.90
56234;DHT22;42141;53.240;6.580;2022-08-16T06:30:55;21.30;99.90
56234;DHT22;42141;53.240;6.580;2022-08-16T06:33:21;21.30;99.90
56234;DHT22;42141;53.240;6.580;2022-08-16T06:35:47;21.50;99.90
56234;DHT22;42141;53.240;6.580;2022-08-16T06:38:16;21.40;99.90
56234;DHT22;42141;53.240;6.580;2022-08-16T06:40:42;21.50;99.90
56234;DHT22;42141;53.240;6.580;2022-08-16T06:43:08;21.60;99.90
56234;DHT22;42141;53.240;6.580;2022-08-16T06:45:34;21.70;99.90
56234;DHT22;42141;53.240;6.580;2022-08-16T06:48:05;21.80;99.90
56234;DHT22;42141;53.240;6.580;2022-08-16T06:50:32;21.80;99.90
56234;DHT22;42141;53.240;6.580;2022-08-16T06:52:58;21.90;99.90
56234;DHT22;42141;53.240;6.580;2022-08-16T06:55:26;22.00;99.90
56234;DHT22;42141;53.240;6.580;2022-08-16T06:57:53;22.00;99.90
56234;DHT22;42141;53.240;6.580;2022-08-16T07:00:19;22.20;99.90
56234;DHT22;42141;53.240;6.580;2022-08-16T07:02:45;22.20;99.90
56234;DHT22;42141;53.240;6.580;2022-08-16T07:05:13;22.30;99.90
56234;DHT22;42141;53.240;6.580;2022-08-16T07:07:40;22.30;99.90
56234;DHT22;42141;53.240;6.580;2022-08-16T07:10:07;22.40;99.90
56234;DHT22;42141;53.240;6.580;2022-08-16T07:12:34;22.40;99.90
56234;DHT22;42141;53.240;6.580;2022-08-16T07:15:00;22.40;99.90
56234;DHT22;42141;53.240;6.580;2022-08-16T07:17:27;22.50;99.90
56234;DHT22;42141;53.240;6.580;2022-08-16T07:19:54;22.60;99.90
56234;DHT22;42141;53.240;6.580;2022-08-16T07:22:20;22.70;99.90
56234;DHT22;42141;53.240;6.580;2022-08-16T07:24:46;22.80;99.90
56234;DHT22;42141;53.240;6.580;2022-08-16T07:27:12;22.80;99.90
56234;DHT22;42141;53.240;6.580;2022-08-16T07:29:38;22.80;99.90
56234;DHT22;42141;53.240;6.580;2022-08-16T07:32:05;22.90;99.90
56234;DHT22;42141;53.240;6.580;2022-08-16T07:34:31;22.90;99.90
56234;DHT22;42141;53.240;6.580;2022-08-16T07:36:59;23.00;99.90
56234;DHT22;42141;53.240;6.580;2022-08-16T07:39:25;23.10;99.90
56234;DHT22;42141;53.240;6.580;2022-08-16T07:41:50;23.20;99.90
56234;DHT22;42141;53.240;6.580;2022-08-16T07:44:16;23.20;99.90
56234;DHT22;42141;53.240;6.580;2022-08-16T07:46:42;23.30;99.90
56234;DHT22;42141;53.240;6.580;2022-08-16T07:49:08;23.30;99.90
56234;DHT22;42141;53.240;6.580;2022-08-16T07:51:34;23.40;99.90
56234;DHT22;42141;53.240;6.580;2022-08-16T07:54:02;23.40;99.90
56234;DHT22;42141;53.240;6.580;2022-08-16T07:56:28;23.50;99.90
56234;DHT22;42141;53.240;6.580;2022-08-16T07:58:55;23.60;99.90
56234;DHT22;42141;53.240;6.580;2022-08-16T08:01:22;23.70;99.90
56234;DHT22;42141;53.240;6.580;2022-08-16T08:03:48;23.80;99.90
56234;DHT22;42141;53.240;6.580;2022-08-16T08:06:18;23.90;99.90
56234;DHT22;42141;53.240;6.580;2022-08-16T08:08:44;24.00;99.90
56234;DHT22;42141;53.240;6.580;2022-08-16T08:11:11;24.40;99.90
56234;DHT22;42141;53.240;6.580;2022-08-16T08:13:37;24.20;99.90
56234;DHT22;42141;53.240;6.580;2022-08-16T08:16:09;24.30;99.90
56234;DHT22;42141;53.240;6.580;2022-08-16T08:18:36;24.40;99.90
56234;DHT22;42141;53.240;6.580;2022-08-16T08:21:01;24.40;99.90
56234;DHT22;42141;53.240;6.580;2022-08-16T08:23:27;24.50;99.90
56234;DHT22;42141;53.240;6.580;2022-08-16T08:25:53;24.50;99.90
56234;DHT22;42141;53.240;6.580;2022-08-16T08:28:19;24.60;99.90
56234;DHT22;42141;53.240;6.580;2022-08-16T08:30:45;24.70;99.90
56234;DHT22;42141;53.240;6.580;2022-08-16T08:33:11;24.80;99.90
56234;DHT22;42141;53.240;6.580;2022-08-16T08:35:38;24.80;99.90
56234;DHT22;42141;53.240;6.580;2022-08-16T08:38:04;24.90;99.90
56234;DHT22;42141;53.240;6.580;2022-08-16T08:40:33;25.00;99.90
56234;DHT22;42141;53.240;6.580;2022-08-16T08:43:01;25.00;99.90
56234;DHT22;42141;53.240;6.580;2022-08-16T08:45:28;25.10;99.90
56234;DHT22;42141;53.240;6.580;2022-08-16T08:47:54;25.20;99.90
56234;DHT22;42141;53.240;6.580;2022-08-16T08:50:22;25.30;99.90
56234;DHT22;42141;53.240;6.580;2022-08-16T08:52:48;24.90;99.90
56234;DHT22;42141;53.240;6.580;2022-08-16T08:55:16;25.40;99.90
56234;DHT22;42141;53.240;6.580;2022-08-16T08:57:44;25.40;99.90
56234;DHT22;42141;53.240;6.580;2022-08-16T09:00:12;25.40;99.90
56234;DHT22;42141;53.240;6.580;2022-08-16T09:02:38;25.50;99.90
56234;DHT22;42141;53.240;6.580;2022-08-16T09:05:07;25.60;99.90
56234;DHT22;42141;53.240;6.580;2022-08-16T09:07:33;25.60;99.90
56234;DHT22;42141;53.240;6.580;2022-08-16T09:09:59;25.90;99.90
56234;DHT22;42141;53.240;6.580;2022-08-16T09:12:25;25.80;99.90
56234;DHT22;42141;53.240;6.580;2022-08-16T09:14:52;25.90;99.90
56234;DHT22;42141;53.240;6.580;2022-08-16T09:17:17;26.00;99.90
56234;DHT22;42141;53.240;6.580;2022-08-16T09:19:46;26.20;99.90
56234;DHT22;42141;53.240;6.580;2022-08-16T09:22:12;26.20;99.90
56234;DHT22;42141;53.240;6.580;2022-08-16T09:24:38;26.90;99.90
56234;DHT22;42141;53.240;6.580;2022-08-16T09:27:04;26.40;99.90
56234;DHT22;42141;53.240;6.580;2022-08-16T09:29:29;26.60;99.90
56234;DHT22;42141;53.240;6.580;2022-08-16T09:31:57;26.70;99.90
56234;DHT22;42141;53.240;6.580;2022-08-16T09:34:25;26.80;99.90
56234;DHT22;42141;53.240;6.580;2022-08-16T09:36:51;26.90;99.90
56234;DHT22;42141;53.240;6.580;2022-08-16T09:39:16;27.00;99.90
56234;DHT22;42141;53.240;6.580;2022-08-16T09:41:44;27.00;99.90
56234;DHT22;42141;53.240;6.580;2022-08-16T09:44:09;26.80;99.50
56234;DHT22;42141;53.240;6.580;2022-08-16T09:46:35;27.20;99.20
56234;DHT22;42141;53.240;6.580;2022-08-16T09:49:01;27.30;99.00
56234;DHT22;42141;53.240;6.580;2022-08-16T09:51:27;27.40;98.60
56234;DHT22;42141;53.240;6.580;2022-08-16T09:53:54;27.40;98.10
56234;DHT22;42141;53.240;6.580;2022-08-16T09:56:31;27.40;97.80
56234;DHT22;42141;53.240;6.580;2022-08-16T09:58:59;27.60;96.80
56234;DHT22;42141;53.240;6.580;2022-08-16T10:01:25;27.50;97.50
56234;DHT22;42141;53.240;6.580;2022-08-16T10:03:52;27.60;97.90
56234;DHT22;42141;53.240;6.580;2022-08-16T10:06:19;27.70;97.80
56234;DHT22;42141;53.240;6.580;2022-08-16T10:08:47;27.70;97.50
56234;DHT22;42141;53.240;6.580;2022-08-16T10:11:14;27.80;96.60
56234;DHT22;42141;53.240;6.580;2022-08-16T10:14:18;27.90;96.60
56234;DHT22;42141;53.240;6.580;2022-08-16T10:16:45;28.00;95.80
56234;DHT22;42141;53.240;6.580;2022-08-16T10:19:18;28.00;95.20
56234;DHT22;42141;53.240;6.580;2022-08-16T10:21:44;28.00;95.30
56234;DHT22;42141;53.240;6.580;2022-08-16T10:24:10;28.10;95.50
56234;DHT22;42141;53.240;6.580;2022-08-16T10:26:39;28.10;95.50
56234;DHT22;42141;53.240;6.580;2022-08-16T10:29:05;28.10;95.80
56234;DHT22;42141;53.240;6.580;2022-08-16T10:31:33;28.20;96.10
56234;DHT22;42141;53.240;6.580;2022-08-16T10:33:59;28.30;95.60
56234;DHT22;42141;53.240;6.580;2022-08-16T10:36:26;28.40;95.00
56234;DHT22;42141;53.240;6.580;2022-08-16T10:38:53;28.50;95.00
56234;DHT22;42141;53.240;6.580;2022-08-16T10:41:18;28.60;95.10
56234;DHT22;42141;53.240;6.580;2022-08-16T10:43:45;28.60;95.00
56234;DHT22;42141;53.240;6.580;2022-08-16T10:46:15;28.70;94.60
56234;DHT22;42141;53.240;6.580;2022-08-16T10:48:42;28.80;94.00
56234;DHT22;42141;53.240;6.580;2022-08-16T10:51:09;28.80;93.70
56234;DHT22;42141;53.240;6.580;2022-08-16T10:53:36;28.90;94.10
56234;DHT22;42141;53.240;6.580;2022-08-16T10:56:07;29.00;93.70
56234;DHT22;42141;53.240;6.580;2022-08-16T10:58:34;29.10;93.10
56234;DHT22;42141;53.240;6.580;2022-08-16T11:01:03;29.40;93.20
56234;DHT22;42141;53.240;6.580;2022-08-16T11:03:30;29.20;92.50
56234;DHT22;42141;53.240;6.580;2022-08-16T11:05:55;29.20;92.00
56234;DHT22;42141;53.240;6.580;2022-08-16T11:08:27;29.30;91.80
56234;DHT22;42141;53.240;6.580;2022-08-16T11:10:53;29.40;91.30
56234;DHT22;42141;53.240;6.580;2022-08-16T11:13:22;29.50;91.20
56234;DHT22;42141;53.240;6.580;2022-08-16T11:15:48;29.50;91.10
56234;DHT22;42141;53.240;6.580;2022-08-16T11:18:13;29.60;91.10
56234;DHT22;42141;53.240;6.580;2022-08-16T11:20:45;29.80;90.50
56234;DHT22;42141;53.240;6.580;2022-08-16T11:23:13;29.90;89.00
56234;DHT22;42141;53.240;6.580;2022-08-16T11:25:39;29.90;88.20
56234;DHT22;42141;53.240;6.580;2022-08-16T11:28:09;29.80;88.60
56234;DHT22;42141;53.240;6.580;2022-08-16T11:30:36;29.90;87.30
56234;DHT22;42141;53.240;6.580;2022-08-16T11:33:02;29.80;86.40
56234;DHT22;42141;53.240;6.580;2022-08-16T11:35:32;29.90;85.70
56234;DHT22;42141;53.240;6.580;2022-08-16T11:38:12;30.00;85.60
56234;DHT22;42141;53.240;6.580;2022-08-16T11:43:17;30.10;82.80
56234;DHT22;42141;53.240;6.580;2022-08-16T11:45:46;29.90;81.40
56234;DHT22;42141;53.240;6.580;2022-08-16T11:48:12;30.10;81.40
56234;DHT22;42141;53.240;6.580;2022-08-16T11:50:38;30.10;81.00
56234;DHT22;42141;53.240;6.580;2022-08-16T11:53:04;30.10;81.10
56234;DHT22;42141;53.240;6.580;2022-08-16T11:55:32;30.20;81.40
56234;DHT22;42141;53.240;6.580;2022-08-16T11:57:59;30.30;82.10
56234;DHT22;42141;53.240;6.580;2022-08-16T12:00:28;30.40;81.40
56234;DHT22;42141;53.240;6.580;2022-08-16T12:03:01;30.50;78.10
56234;DHT22;42141;53.240;6.580;2022-08-16T12:05:29;30.40;77.20
56234;DHT22;42141;53.240;6.580;2022-08-16T12:07:55;30.50;78.60
56234;DHT22;42141;53.240;6.580;2022-08-16T12:10:24;30.50;78.60
56234;DHT22;42141;53.240;6.580;2022-08-16T12:12:50;30.60;78.20
56234;DHT22;42141;53.240;6.580;2022-08-16T12:15:19;30.70;78.30
56234;DHT22;42141;53.240;6.580;2022-08-16T12:17:45;30.90;77.30
56234;DHT22;42141;53.240;6.580;2022-08-16T12:20:20;30.90;76.20
56234;DHT22;42141;53.240;6.580;2022-08-16T12:22:47;30.90;74.30
56234;DHT22;42141;53.240;6.580;2022-08-16T12:25:23;30.70;74.90
56234;DHT22;42141;53.240;6.580;2022-08-16T12:27:50;30.50;74.90
56234;DHT22;42141;53.240;6.580;2022-08-16T12:30:21;30.50;76.50
56234;DHT22;42141;53.240;6.580;2022-08-16T12:32:47;30.40;76.00
56234;DHT22;42141;53.240;6.580;2022-08-16T12:35:16;30.40;74.60
56234;DHT22;42141;53.240;6.580;2022-08-16T12:37:44;30.40;74.80
56234;DHT22;42141;53.240;6.580;2022-08-16T12:40:12;30.30;74.30
56234;DHT22;42141;53.240;6.580;2022-08-16T12:42:38;30.40;74.30
56234;DHT22;42141;53.240;6.580;2022-08-16T12:45:07;30.50;72.70
56234;DHT22;42141;53.240;6.580;2022-08-16T12:47:34;30.70;72.80
56234;DHT22;42141;53.240;6.580;2022-08-16T12:50:18;30.80;71.40
56234;DHT22;42141;53.240;6.580;2022-08-16T12:52:44;30.90;69.30
56234;DHT22;42141;53.240;6.580;2022-08-16T12:55:10;30.90;68.60
56234;DHT22;42141;53.240;6.580;2022-08-16T12:57:38;30.80;68.30
56234;DHT22;42141;53.240;6.580;2022-08-16T13:00:15;30.80;70.00
56234;DHT22;42141;53.240;6.580;2022-08-16T13:02:42;30.80;71.20
56234;DHT22;42141;53.240;6.580;2022-08-16T13:05:09;30.90;70.00
56234;DHT22;42141;53.240;6.580;2022-08-16T13:07:39;30.90;68.40
56234;DHT22;42141;53.240;6.580;2022-08-16T13:10:07;30.80;68.30
56234;DHT22;42141;53.240;6.580;2022-08-16T13:12:39;30.70;71.00
56234;DHT22;42141;53.240;6.580;2022-08-16T13:15:10;30.70;73.20
56234;DHT22;42141;53.240;6.580;2022-08-16T13:17:37;30.70;77.40
56234;DHT22;42141;53.240;6.580;2022-08-16T13:20:06;30.70;79.90
56234;DHT22;42141;53.240;6.580;2022-08-16T13:22:34;30.60;81.90
56234;DHT22;42141;53.240;6.580;2022-08-16T13:25:01;30.40;83.50
56234;DHT22;42141;53.240;6.580;2022-08-16T13:27:26;30.20;85.40
56234;DHT22;42141;53.240;6.580;2022-08-16T13:29:52;30.00;87.10
56234;DHT22;42141;53.240;6.580;2022-08-16T13:32:18;29.90;90.00
56234;DHT22;42141;53.240;6.580;2022-08-16T13:34:43;29.80;91.20
56234;DHT22;42141;53.240;6.580;2022-08-16T13:37:09;29.60;91.00
56234;DHT22;42141;53.240;6.580;2022-08-16T13:39:35;29.50;91.30
56234;DHT22;42141;53.240;6.580;2022-08-16T13:42:01;29.30;91.60
56234;DHT22;42141;53.240;6.580;2022-08-16T13:44:29;29.30;92.70
56234;DHT22;42141;53.240;6.580;2022-08-16T13:46:55;29.20;92.80
56234;DHT22;42141;53.240;6.580;2022-08-16T13:49:22;29.20;92.50
56234;DHT22;42141;53.240;6.580;2022-08-16T13:51:47;29.10;91.80
56234;DHT22;42141;53.240;6.580;2022-08-16T13:54:14;29.10;92.10
56234;DHT22;42141;53.240;6.580;2022-08-16T13:56:40;29.30;91.30
56234;DHT22;42141;53.240;6.580;2022-08-16T13:59:07;29.40;88.60
56234;DHT22;42141;53.240;6.580;2022-08-16T14:01:34;29.50;85.40
56234;DHT22;42141;53.240;6.580;2022-08-16T14:03:59;29.70;83.40
56234;DHT22;42141;53.240;6.580;2022-08-16T14:06:26;29.90;80.20
56234;DHT22;42141;53.240;6.580;2022-08-16T14:08:52;30.20;79.90
56234;DHT22;42141;53.240;6.580;2022-08-16T14:11:17;30.40;79.30
56234;DHT22;42141;53.240;6.580;2022-08-16T14:13:43;30.70;80.30
56234;DHT22;42141;53.240;6.580;2022-08-16T14:16:09;30.90;80.60
56234;DHT22;42141;53.240;6.580;2022-08-16T14:18:35;31.10;78.40
56234;DHT22;42141;53.240;6.580;2022-08-16T14:21:01;31.20;76.40
56234;DHT22;42141;53.240;6.580;2022-08-16T14:23:30;31.20;75.50
56234;DHT22;42141;53.240;6.580;2022-08-16T14:26:01;31.20;76.80
56234;DHT22;42141;53.240;6.580;2022-08-16T14:28:35;31.10;77.20
56234;DHT22;42141;53.240;6.580;2022-08-16T14:31:01;30.90;78.70
56234;DHT22;42141;53.240;6.580;2022-08-16T14:33:27;30.80;79.60
56234;DHT22;42141;53.240;6.580;2022-08-16T14:35:53;30.50;81.10
56234;DHT22;42141;53.240;6.580;2022-08-16T14:38:19;30.40;82.50
56234;DHT22;42141;53.240;6.580;2022-08-16T14:40:49;30.40;84.20
56234;DHT22;42141;53.240;6.580;2022-08-16T14:43:15;30.50;84.20
56234;DHT22;42141;53.240;6.580;2022-08-16T14:45:41;30.50;84.20
56234;DHT22;42141;53.240;6.580;2022-08-16T14:48:06;30.40;84.60
56234;DHT22;42141;53.240;6.580;2022-08-16T14:50:32;30.20;84.90
56234;DHT22;42141;53.240;6.580;2022-08-16T14:53:02;30.10;85.60
56234;DHT22;42141;53.240;6.580;2022-08-16T14:55:29;29.90;87.10
56234;DHT22;42141;53.240;6.580;2022-08-16T14:57:56;29.70;87.80
56234;DHT22;42141;53.240;6.580;2022-08-16T15:00:24;29.50;89.50
56234;DHT22;42141;53.240;6.580;2022-08-16T15:02:51;29.40;89.70
56234;DHT22;42141;53.240;6.580;2022-08-16T15:05:19;29.20;88.50
56234;DHT22;42141;53.240;6.580;2022-08-16T15:07:45;29.00;89.40
56234;DHT22;42141;53.240;6.580;2022-08-16T15:10:11;28.90;90.40
56234;DHT22;42141;53.240;6.580;2022-08-16T15:12:37;28.80;90.80
56234;DHT22;42141;53.240;6.580;2022-08-16T15:15:06;28.70;90.80
56234;DHT22;42141;53.240;6.580;2022-08-16T15:17:32;28.60;90.90
56234;DHT22;42141;53.240;6.580;2022-08-16T15:19:58;28.50;91.00
56234;DHT22;42141;53.240;6.580;2022-08-16T15:22:30;28.50;91.10
56234;DHT22;42141;53.240;6.580;2022-08-16T15:25:00;28.50;90.70
56234;DHT22;42141;53.240;6.580;2022-08-16T15:27:31;28.60;90.50
56234;DHT22;42141;53.240;6.580;2022-08-16T15:29:58;28.80;90.10
56234;DHT22;42141;53.240;6.580;2022-08-16T15:32:24;28.90;88.70